Time;durP1;ratioP1;P1;durP2;ratioP2;P2;SDS_P1;SDS_P2;PMS_P1;PMS_P2;Temp;Humidity;BMP_temperature;BMP_pressure;BME280_temperature;BME280_humidity;BME280_pressure;Samples;Min_cycle;Max_cycle;Signal;HPM_P1;HPM_P2
2023/03/02 00:01:19;;;;;;;40.70;28.05;;;1.90;99.90;;;;;;5111548;28;20194;-50
2023/03/02 00:03:47;;;;;;;50.42;29.45;;;2.30;99.90;;;;;;5114940;28;20670;-51
2023/03/02 00:06:14;;;;;;;44.53;27.48;;;1.60;99.90;;;;;;5115530;28;20217;-51
2023/03/02 00:08:41;;;;;;;30.70;23.88;;;1.90;99.90;;;;;;5115489;28;20381;-51
2023/03/02 00:11:20;;;;;;;37.53;25.25;;;2.10;99.90;;;;;;5115699;28;20197;-51
2023/03/02 00:13:57;;;;;;;37.08;23.23;;;2.10;99.90;;;;;;5115728;28;20559;-51
2023/03/02 00:16:24;;;;;;;34.45;23.15;;;2.00;99.90;;;;;;5115055;28;20305;-52
2023/03/02 00:18:52;;;;;;;37.03;21.77;;;2.00;99.90;;;;;;5115319;28;20205;-52
2023/03/02 00:21:19;;;;;;;30.70;20.80;;;1.80;99.90;;;;;;5115609;28;20194;-52
2023/03/02 00:23:45;;;;;;;31.92;23.17;;;2.10;99.90;;;;;;5115257;28;20201;-51
2023/03/02 00:26:12;;;;;;;32.90;19.45;;;2.00;99.90;;;;;;5115114;28;20558;-50
2023/03/02 00:28:39;;;;;;;24.08;19.58;;;2.30;99.90;;;;;;5115246;28;20588;-52
2023/03/02 00:31:06;;;;;;;25.77;18.90;;;2.70;99.90;;;;;;5115218;28;20187;-51
2023/03/02 00:33:33;;;;;;;27.75;19.38;;;2.30;99.90;;;;;;5096948;28;20229;-51
2023/03/02 00:36:01;;;;;;;31.05;20.13;;;2.20;99.90;;;;;;5115088;28;20541;-52
2023/03/02 00:38:28;;;;;;;28.05;20.30;;;2.40;99.90;;;;;;5114912;28;20559;-51
2023/03/02 00:40:55;;;;;;;27.05;19.17;;;1.90;99.90;;;;;;5097011;28;20206;-51
2023/03/02 00:43:26;;;;;;;29.80;18.20;;;2.00;99.90;;;;;;5114956;28;20209;-52
2023/03/02 00:45:53;;;;;;;27.88;18.50;;;2.70;99.90;;;;;;5114863;28;20306;-51
2023/03/02 00:48:20;;;;;;;28.50;18.50;;;2.00;99.90;;;;;;5095794;28;20201;-51
2023/03/02 00:50:46;;;;;;;28.45;18.85;;;2.20;99.90;;;;;;5114898;28;20197;-50
2023/03/02 00:53:14;;;;;;;27.20;19.40;;;2.00;99.90;;;;;;5114803;28;20194;-53
2023/03/02 00:55:41;;;;;;;28.15;17.63;;;2.30;99.90;;;;;;5114634;28;20210;-51
2023/03/02 00:58:08;;;;;;;27.13;19.23;;;2.10;99.90;;;;;;5115100;28;20200;-51
2023/03/02 01:00:36;;;;;;;32.00;18.08;;;2.20;99.90;;;;;;5096256;28;20218;-51
2023/03/02 01:03:06;;;;;;;25.75;19.05;;;2.30;99.90;;;;;;5096238;28;20209;-52
2023/03/02 01:05:36;;;;;;;27.75;18.48;;;2.00;99.90;;;;;;5114540;28;20254;-52
2023/03/02 01:08:03;;;;;;;27.90;18.27;;;2.30;99.90;;;;;;5096136;28;20295;-52
2023/03/02 01:10:33;;;;;;;25.95;17.80;;;2.40;99.90;;;;;;5114456;28;20198;-52
2023/03/02 01:12:59;;;;;;;25.85;18.65;;;2.30;99.90;;;;;;5095728;28;20250;-51
2023/03/02 01:15:26;;;;;;;22.13;17.60;;;2.30;99.90;;;;;;5114239;28;20213;-50
2023/03/02 01:17:52;;;;;;;30.02;20.10;;;2.10;99.90;;;;;;5095961;28;20198;-51
2023/03/02 01:20:20;;;;;;;30.70;19.45;;;2.00;99.90;;;;;;5114078;28;20231;-50
2023/03/02 01:22:47;;;;;;;33.95;20.80;;;2.30;99.90;;;;;;5095816;28;20717;-51
2023/03/02 01:25:14;;;;;;;28.38;18.77;;;2.00;99.90;;;;;;5114035;28;20210;-52
2023/03/02 01:27:42;;;;;;;32.70;18.85;;;2.10;99.90;;;;;;5095884;28;20583;-50
2023/03/02 01:30:10;;;;;;;30.67;18.73;;;2.30;99.90;;;;;;5113783;28;20194;-52
2023/03/02 01:32:37;;;;;;;31.52;18.20;;;2.00;99.90;;;;;;5114031;28;20677;-51
2023/03/02 01:35:04;;;;;;;28.25;18.65;;;2.00;99.90;;;;;;5095635;28;20575;-52
2023/03/02 01:37:30;;;;;;;26.80;17.90;;;2.00;99.90;;;;;;5114166;28;20197;-51
2023/03/02 01:39:57;;;;;;;27.17;18.58;;;2.30;99.90;;;;;;5113561;28;20197;-51
2023/03/02 01:42:24;;;;;;;25.27;18.00;;;2.10;99.90;;;;;;5095600;28;20825;-52
2023/03/02 01:44:55;;;;;;;27.45;18.27;;;2.20;99.90;;;;;;5114103;28;20587;-52
2023/03/02 01:47:28;;;;;;;28.15;16.88;;;1.90;99.90;;;;;;5095422;28;20222;-51
2023/03/02 01:50:05;;;;;;;28.52;18.80;;;2.20;99.90;;;;;;5094996;28;20198;-52
2023/03/02 01:52:37;;;;;;;29.20;18.67;;;2.00;99.90;;;;;;5095545;28;20212;-52
2023/03/02 01:55:09;;;;;;;33.10;19.63;;;2.20;99.90;;;;;;5095142;28;20222;-51
2023/03/02 01:57:42;;;;;;;27.63;18.50;;;2.00;99.90;;;;;;5095349;28;20335;-53
2023/03/02 02:00:14;;;;;;;26.80;18.85;;;2.20;99.90;;;;;;5094938;28;20202;-51
2023/03/02 02:02:42;;;;;;;25.52;18.35;;;1.80;99.90;;;;;;5112071;28;20201;-52
2023/03/02 02:05:11;;;;;;;24.92;18.50;;;1.90;99.90;;;;;;5095034;28;20226;-52
2023/03/02 02:07:40;;;;;;;29.38;19.05;;;1.90;99.90;;;;;;5113505;28;20181;-53
2023/03/02 02:10:08;;;;;;;28.70;19.17;;;1.90;99.90;;;;;;5094685;28;20197;-50
2023/03/02 02:12:35;;;;;;;34.60;21.00;;;2.00;99.90;;;;;;5094911;28;20201;-51
2023/03/02 02:15:02;;;;;;;29.52;18.05;;;1.70;99.90;;;;;;5113017;28;20229;-51
2023/03/02 02:17:31;;;;;;;33.55;18.63;;;1.90;99.90;;;;;;5095120;28;20201;-52
2023/03/02 02:20:06;;;;;;;35.63;21.08;;;1.30;99.90;;;;;;5094617;28;20284;-52
2023/03/02 02:22:48;;;;;;;29.50;19.92;;;1.70;99.90;;;;;;5113256;28;20202;-51
2023/03/02 02:25:25;;;;;;;33.70;19.70;;;1.70;99.90;;;;;;5094113;28;20592;-51
2023/03/02 02:27:54;;;;;;;28.83;19.50;;;1.90;99.90;;;;;;5094597;28;20666;-51
2023/03/02 02:30:22;;;;;;;32.78;22.30;;;1.80;99.90;;;;;;5112610;28;20186;-50
2023/03/02 02:32:51;;;;;;;42.42;23.38;;;1.10;99.90;;;;;;5094541;28;20288;-50
2023/03/02 02:35:21;;;;;;;37.35;20.77;;;1.50;99.90;;;;;;5112743;28;20210;-52
2023/03/02 02:37:50;;;;;;;38.65;24.15;;;1.60;99.90;;;;;;5094670;28;20205;-51
2023/03/02 02:40:22;;;;;;;38.95;23.63;;;1.30;99.90;;;;;;5094126;28;20961;-51
2023/03/02 02:42:53;;;;;;;39.40;22.77;;;1.60;99.90;;;;;;5094435;28;20209;-51
2023/03/02 02:45:22;;;;;;;39.35;23.00;;;1.70;99.90;;;;;;5094607;28;20225;-50
2023/03/02 02:47:50;;;;;;;34.75;21.33;;;1.60;99.90;;;;;;5094123;28;20229;-52
2023/03/02 02:50:20;;;;;;;28.60;18.98;;;2.00;99.90;;;;;;5112167;28;20194;-52
2023/03/02 02:52:53;;;;;;;25.88;18.90;;;2.10;99.90;;;;;;5112423;28;20208;-51
2023/03/02 02:55:22;;;;;;;27.58;19.80;;;1.80;99.90;;;;;;5112408;28;20225;-50
2023/03/02 02:57:54;;;;;;;39.50;21.80;;;1.50;99.90;;;;;;5094325;28;20233;-50
2023/03/02 03:00:22;;;;;;;33.92;20.75;;;1.60;99.90;;;;;;5094071;28;20202;-52
2023/03/02 03:02:55;;;;;;;36.25;22.10;;;1.50;99.90;;;;;;5112294;28;20190;-51
2023/03/02 03:05:22;;;;;;;40.13;20.80;;;1.40;99.90;;;;;;5093883;28;20225;-51
2023/03/02 03:07:48;;;;;;;40.65;21.63;;;1.60;99.90;;;;;;5093995;28;20304;-52
2023/03/02 03:10:21;;;;;;;35.42;23.67;;;1.70;99.90;;;;;;5093875;28;20198;-52
2023/03/02 03:12:49;;;;;;;39.92;24.40;;;1.80;99.90;;;;;;5112215;28;20205;-52
2023/03/02 03:15:17;;;;;;;36.38;22.10;;;1.40;99.90;;;;;;5111900;28;20297;-51
2023/03/02 03:17:48;;;;;;;41.92;23.50;;;1.60;99.90;;;;;;5112032;28;20193;-52
2023/03/02 03:20:16;;;;;;;36.55;22.13;;;1.50;99.90;;;;;;5093395;28;20197;-51
2023/03/02 03:22:44;;;;;;;38.20;23.50;;;0.80;99.90;;;;;;5093665;28;20202;-50
2023/03/02 03:25:14;;;;;;;35.55;22.88;;;1.20;99.90;;;;;;5112053;28;20210;-51
2023/03/02 03:27:42;;;;;;;39.83;24.17;;;1.20;99.90;;;;;;5112047;28;20205;-52
2023/03/02 03:30:12;;;;;;;37.95;22.98;;;1.60;99.90;;;;;;5093239;28;20221;-50
2023/03/02 03:32:41;;;;;;;37.92;21.73;;;1.60;99.90;;;;;;5093701;28;20194;-51
2023/03/02 03:35:10;;;;;;;33.80;20.70;;;1.40;99.90;;;;;;5093421;28;20249;-50
2023/03/02 03:37:39;;;;;;;32.13;20.83;;;1.40;99.90;;;;;;5093706;28;20287;-51
2023/03/02 03:40:08;;;;;;;33.70;20.90;;;0.90;99.90;;;;;;5093449;28;20206;-51
2023/03/02 03:42:36;;;;;;;35.55;22.25;;;1.10;99.90;;;;;;5093469;28;20616;-52
2023/03/02 03:45:04;;;;;;;35.88;20.52;;;1.40;99.90;;;;;;5093382;28;20225;-51
2023/03/02 03:47:33;;;;;;;30.23;18.70;;;1.20;99.90;;;;;;5111853;28;20240;-51
2023/03/02 03:50:02;;;;;;;29.35;19.77;;;1.40;99.90;;;;;;5093177;28;20212;-50
2023/03/02 03:52:30;;;;;;;31.20;20.48;;;1.20;99.90;;;;;;5093517;28;20209;-51
2023/03/02 03:55:02;;;;;;;25.98;19.05;;;1.20;99.90;;;;;;5093362;28;20225;-50
2023/03/02 03:57:29;;;;;;;35.40;20.48;;;1.20;99.90;;;;;;5111536;28;20657;-51
2023/03/02 03:59:56;;;;;;;34.55;22.83;;;1.20;99.90;;;;;;5092916;28;20596;-52
2023/03/02 04:02:23;;;;;;;37.80;20.23;;;1.10;99.90;;;;;;5093272;28;20277;-51
2023/03/02 04:04:50;;;;;;;30.98;19.77;;;1.30;99.90;;;;;;5111727;28;20209;-51
2023/03/02 04:07:20;;;;;;;30.48;20.15;;;1.20;99.90;;;;;;5093288;28;20339;-52
2023/03/02 04:09:47;;;;;;;35.90;19.67;;;1.30;99.90;;;;;;5092927;28;20296;-54
2023/03/02 04:12:15;;;;;;;29.42;19.30;;;1.20;99.90;;;;;;5093307;28;20266;-51
2023/03/02 04:14:51;;;;;;;31.48;19.10;;;1.30;99.90;;;;;;5093298;28;20233;-51
2023/03/02 04:17:18;;;;;;;28.83;18.65;;;1.10;99.90;;;;;;5093454;28;20227;-51
2023/03/02 04:19:47;;;;;;;28.40;20.60;;;1.30;99.90;;;;;;5093016;28;20205;-51
2023/03/02 04:22:15;;;;;;;29.90;19.35;;;1.20;99.90;;;;;;5111293;28;20277;-51
2023/03/02 04:24:43;;;;;;;36.75;21.10;;;1.10;99.90;;;;;;5093182;28;20357;-51
2023/03/02 04:27:10;;;;;;;31.08;20.30;;;1.40;99.90;;;;;;5092991;28;20234;-52
2023/03/02 04:29:37;;;;;;;28.00;19.55;;;1.20;99.90;;;;;;5092603;28;20202;-52
2023/03/02 04:32:06;;;;;;;31.75;20.50;;;1.20;99.90;;;;;;5092988;28;20220;-51
2023/03/02 04:34:34;;;;;;;31.67;20.45;;;0.50;99.90;;;;;;5111094;28;20213;-53
2023/03/02 04:37:01;;;;;;;32.40;20.70;;;1.10;99.90;;;;;;5092519;28;20666;-52
2023/03/02 04:39:28;;;;;;;33.88;21.30;;;1.20;99.90;;;;;;5092622;28;20198;-51
2023/03/02 04:41:56;;;;;;;25.60;19.33;;;0.90;99.90;;;;;;5111025;28;20688;-51
2023/03/02 04:44:22;;;;;;;28.40;19.13;;;1.10;99.90;;;;;;5111016;28;20221;-51
2023/03/02 04:46:49;;;;;;;31.15;20.42;;;0.90;99.90;;;;;;5111026;28;20210;-50
2023/03/02 04:49:19;;;;;;;28.77;20.02;;;1.10;99.90;;;;;;5113008;28;20263;-51
2023/03/02 04:51:48;;;;;;;29.95;20.15;;;1.00;99.90;;;;;;5114815;28;20626;-50
2023/03/02 04:54:18;;;;;;;30.63;20.00;;;1.20;99.90;;;;;;5114762;28;20614;-52
2023/03/02 04:56:47;;;;;;;31.13;19.90;;;1.20;99.90;;;;;;5114553;28;20194;-51
2023/03/02 04:59:15;;;;;;;34.17;20.33;;;1.10;99.90;;;;;;5095776;28;20266;-51
2023/03/02 05:01:43;;;;;;;32.78;21.13;;;0.90;99.90;;;;;;5114592;28;20202;-51
2023/03/02 05:04:10;;;;;;;32.22;21.52;;;1.20;99.90;;;;;;5114501;28;20285;-51
2023/03/02 05:06:36;;;;;;;30.50;20.15;;;1.20;99.90;;;;;;5114471;28;20487;-51
2023/03/02 05:09:03;;;;;;;29.10;20.70;;;1.00;99.90;;;;;;5114073;28;20201;-51
2023/03/02 05:11:30;;;;;;;38.13;22.27;;;1.00;99.90;;;;;;5114490;28;20190;-52
2023/03/02 05:14:00;;;;;;;31.58;22.70;;;1.00;99.90;;;;;;5114248;28;20665;-51
2023/03/02 05:16:31;;;;;;;34.92;23.92;;;0.90;99.90;;;;;;5115101;28;20667;-52
2023/03/02 05:18:58;;;;;;;36.33;23.63;;;1.00;99.90;;;;;;5114088;28;20190;-53
2023/03/02 05:21:25;;;;;;;35.65;24.30;;;1.00;99.90;;;;;;5114218;28;20201;-53
2023/03/02 05:23:53;;;;;;;33.78;23.98;;;0.40;99.90;;;;;;5114248;28;20192;-53
2023/03/02 05:26:19;;;;;;;39.95;24.65;;;1.10;99.90;;;;;;5114342;28;20210;-51
2023/03/02 05:28:46;;;;;;;39.72;24.27;;;0.80;99.90;;;;;;5113763;28;20202;-54
2023/03/02 05:31:17;;;;;;;38.78;25.08;;;1.20;99.90;;;;;;5114406;28;20193;-52
2023/03/02 05:33:46;;;;;;;41.22;25.38;;;0.90;99.90;;;;;;5114214;28;20208;-52
2023/03/02 05:36:13;;;;;;;39.08;25.40;;;1.10;99.90;;;;;;5114152;28;20578;-52
2023/03/02 05:38:39;;;;;;;40.28;24.75;;;0.80;99.90;;;;;;5113428;28;20190;-53
2023/03/02 05:41:06;;;;;;;42.67;25.38;;;0.90;99.90;;;;;;5114207;28;20204;-54
2023/03/02 05:43:33;;;;;;;42.75;25.30;;;0.90;99.90;;;;;;5114236;28;20202;-54
2023/03/02 05:46:00;;;;;;;38.92;24.48;;;0.90;99.90;;;;;;5113446;28;20244;-53
2023/03/02 05:48:26;;;;;;;45.17;25.77;;;0.80;99.90;;;;;;5113175;28;20256;-52
2023/03/02 05:50:54;;;;;;;42.63;25.02;;;0.90;99.90;;;;;;5113509;28;20208;-53
2023/03/02 05:53:21;;;;;;;39.65;23.98;;;0.90;99.90;;;;;;5113800;28;20189;-53
2023/03/02 05:55:48;;;;;;;42.90;25.52;;;0.80;99.90;;;;;;5113399;28;20231;-53
2023/03/02 05:58:16;;;;;;;40.47;23.77;;;0.60;99.90;;;;;;5112817;28;20182;-53
2023/03/02 06:00:43;;;;;;;49.33;26.27;;;0.60;99.90;;;;;;5111871;28;20209;-52
2023/03/02 06:03:10;;;;;;;42.08;25.58;;;0.80;99.90;;;;;;5113154;28;20669;-51
2023/03/02 06:05:37;;;;;;;50.08;25.50;;;0.70;99.90;;;;;;5113236;28;20217;-53
2023/03/02 06:08:06;;;;;;;48.78;26.25;;;1.10;99.90;;;;;;5112885;28;20628;-54
2023/03/02 06:10:33;;;;;;;46.58;25.05;;;0.70;99.90;;;;;;5113077;28;20193;-51
2023/03/02 06:13:00;;;;;;;47.75;25.35;;;0.50;99.90;;;;;;5094727;28;20201;-53
2023/03/02 06:15:28;;;;;;;57.22;27.40;;;0.70;99.90;;;;;;5112720;28;20218;-52
2023/03/02 06:17:55;;;;;;;57.33;27.70;;;0.50;99.90;;;;;;5112693;28;20666;-52
2023/03/02 06:20:21;;;;;;;48.00;27.13;;;0.00;99.90;;;;;;5112473;28;20193;-52
2023/03/02 06:22:48;;;;;;;67.07;28.70;;;0.50;99.90;;;;;;5112980;28;20204;-54
2023/03/02 06:25:19;;;;;;;64.90;26.95;;;0.50;99.90;;;;;;5112333;28;20595;-54
2023/03/02 06:27:46;;;;;;;158.57;30.45;;;0.60;99.90;;;;;;5112806;28;20332;-54
2023/03/02 06:30:16;;;;;;;99.18;30.05;;;0.70;99.90;;;;;;5111835;28;20549;-54
2023/03/02 06:32:43;;;;;;;91.22;28.42;;;0.80;99.90;;;;;;5112259;28;20200;-54
2023/03/02 06:35:11;;;;;;;105.97;26.75;;;0.60;99.90;;;;;;5112062;28;20561;-56
2023/03/02 06:37:39;;;;;;;151.07;27.90;;;0.70;99.90;;;;;;5111747;28;20726;-54
2023/03/02 06:40:08;;;;;;;160.18;29.20;;;0.60;99.90;;;;;;5112308;28;20231;-53
2023/03/02 06:42:38;;;;;;;98.45;27.02;;;0.50;99.90;;;;;;5111933;28;20221;-53
2023/03/02 06:45:06;;;;;;;67.18;25.45;;;0.60;99.90;;;;;;5111918;28;20213;-55
2023/03/02 06:47:33;;;;;;;64.13;26.23;;;0.50;99.90;;;;;;5111726;28;20227;-55
2023/03/02 06:50:00;;;;;;;63.63;25.42;;;0.30;99.90;;;;;;5092995;28;20201;-53
2023/03/02 06:52:27;;;;;;;63.78;26.90;;;0.00;99.90;;;;;;5111454;28;20233;-53
2023/03/02 06:54:53;;;;;;;128.18;28.75;;;0.60;99.90;;;;;;5093640;28;20243;-54
2023/03/02 06:57:20;;;;;;;59.60;26.23;;;0.50;99.90;;;;;;5093392;28;20199;-53
2023/03/02 06:59:48;;;;;;;83.35;25.60;;;0.60;99.90;;;;;;5111531;28;20688;-52
2023/03/02 07:02:15;;;;;;;90.50;27.70;;;0.40;99.90;;;;;;5111479;28;20273;-52
2023/03/02 07:04:41;;;;;;;78.20;28.90;;;0.40;99.90;;;;;;5111653;28;20213;-54
2023/03/02 07:07:08;;;;;;;94.40;27.10;;;0.00;99.90;;;;;;5111760;28;20197;-53
2023/03/02 07:09:35;;;;;;;52.42;25.35;;;0.50;99.90;;;;;;5111550;28;20582;-54
2023/03/02 07:12:02;;;;;;;60.05;27.50;;;0.00;99.90;;;;;;5111458;28;20193;-52
2023/03/02 07:14:28;;;;;;;51.35;28.15;;;0.80;99.90;;;;;;5111507;28;20217;-53
2023/03/02 07:16:58;;;;;;;50.72;25.45;;;0.70;99.90;;;;;;5111894;28;20201;-53
2023/03/02 07:19:25;;;;;;;45.00;25.27;;;0.60;99.90;;;;;;5111177;28;20202;-55
2023/03/02 07:21:52;;;;;;;60.00;27.40;;;0.50;99.90;;;;;;5111468;28;20198;-53
2023/03/02 07:24:18;;;;;;;53.30;25.92;;;0.90;99.90;;;;;;5110913;28;20619;-54
2023/03/02 07:26:45;;;;;;;60.00;24.02;;;0.90;99.90;;;;;;5111470;28;20211;-54
2023/03/02 07:29:12;;;;;;;86.75;25.65;;;1.00;99.90;;;;;;5110990;28;20224;-53
2023/03/02 07:31:39;;;;;;;114.00;26.58;;;1.10;99.90;;;;;;5111550;28;20204;-53
2023/03/02 07:34:07;;;;;;;62.38;24.40;;;0.80;99.90;;;;;;5110990;28;20682;-55
2023/03/02 07:36:33;;;;;;;56.90;26.77;;;1.00;99.90;;;;;;5111488;28;20578;-55
2023/03/02 07:39:03;;;;;;;66.30;27.40;;;1.00;99.90;;;;;;5111207;28;20682;-54
2023/03/02 07:41:29;;;;;;;72.93;26.02;;;1.40;99.90;;;;;;5092697;28;20242;-55
2023/03/02 07:43:56;;;;;;;67.93;24.15;;;1.20;99.90;;;;;;5111734;28;20201;-53
2023/03/02 07:46:22;;;;;;;63.10;23.80;;;1.00;99.90;;;;;;5111526;28;20217;-53
2023/03/02 07:48:49;;;;;;;62.03;25.17;;;1.30;99.90;;;;;;5111345;28;20689;-56
2023/03/02 07:51:17;;;;;;;58.25;24.23;;;0.60;99.90;;;;;;5092850;28;20201;-53
2023/03/02 07:53:44;;;;;;;54.38;26.75;;;1.10;99.90;;;;;;5111766;28;20197;-53
2023/03/02 07:56:11;;;;;;;44.55;22.92;;;1.20;99.90;;;;;;5111686;28;20217;-56
2023/03/02 07:58:38;;;;;;;42.80;24.77;;;1.20;99.90;;;;;;5111213;28;20194;-54
2023/03/02 08:01:05;;;;;;;47.08;26.10;;;1.30;99.90;;;;;;5111916;28;20194;-54
2023/03/02 08:03:32;;;;;;;51.13;25.70;;;1.40;99.90;;;;;;5111134;28;20282;-55
2023/03/02 08:05:58;;;;;;;44.30;24.15;;;0.90;99.90;;;;;;5110830;28;20210;-54
2023/03/02 08:08:26;;;;;;;46.88;25.25;;;1.40;99.90;;;;;;5110924;28;20690;-53
2023/03/02 08:10:53;;;;;;;42.80;25.08;;;1.70;99.90;;;;;;5093089;28;20206;-54
2023/03/02 08:13:20;;;;;;;41.95;23.73;;;2.10;99.90;;;;;;5110959;28;20201;-52
2023/03/02 08:15:46;;;;;;;46.08;23.23;;;1.20;99.90;;;;;;5111214;28;20236;-54
2023/03/02 08:18:14;;;;;;;45.85;25.77;;;1.90;99.90;;;;;;5110918;28;20213;-53
2023/03/02 08:20:40;;;;;;;50.47;23.95;;;2.20;99.90;;;;;;5111356;28;20200;-56
2023/03/02 08:23:07;;;;;;;39.45;24.23;;;2.00;99.90;;;;;;5111749;28;20472;-54
2023/03/02 08:25:37;;;;;;;33.67;22.30;;;2.20;99.90;;;;;;5114867;28;20237;-55
2023/03/02 08:28:04;;;;;;;48.25;24.58;;;2.00;99.90;;;;;;5114649;28;20206;-53
2023/03/02 08:30:30;;;;;;;37.65;23.65;;;2.20;99.90;;;;;;5114987;28;20198;-54
2023/03/02 08:32:57;;;;;;;46.03;23.67;;;1.60;99.90;;;;;;5114759;28;20206;-56
2023/03/02 08:35:23;;;;;;;47.92;25.13;;;1.90;99.90;;;;;;5114816;28;20281;-55
2023/03/02 08:37:50;;;;;;;38.83;22.60;;;2.20;99.90;;;;;;5096344;28;20630;-54
2023/03/02 08:40:17;;;;;;;51.95;21.80;;;1.60;99.90;;;;;;5115206;28;20190;-54
2023/03/02 08:42:45;;;;;;;40.58;21.13;;;1.90;99.90;;;;;;5114189;28;20566;-54
2023/03/02 08:45:12;;;;;;;30.67;17.80;;;2.00;99.90;;;;;;5114296;28;20225;-55
2023/03/02 08:47:39;;;;;;;39.25;23.65;;;2.20;99.90;;;;;;5095905;28;20575;-53
2023/03/02 08:50:06;;;;;;;35.13;21.73;;;2.10;99.90;;;;;;5114387;28;20194;-53
2023/03/02 08:52:33;;;;;;;39.28;23.33;;;2.10;99.90;;;;;;5114696;28;20190;-54
2023/03/02 08:55:00;;;;;;;38.50;23.45;;;2.30;99.90;;;;;;5096414;28;20217;-53
2023/03/02 08:57:27;;;;;;;40.60;24.92;;;2.20;99.90;;;;;;5114481;28;20194;-54
2023/03/02 08:59:55;;;;;;;37.03;23.80;;;2.50;99.90;;;;;;5114037;28;20205;-53
2023/03/02 09:02:22;;;;;;;40.13;23.05;;;2.50;99.90;;;;;;5115168;28;20213;-55
2023/03/02 09:04:48;;;;;;;39.20;22.92;;;2.60;99.90;;;;;;5114948;28;20224;-53
2023/03/02 09:07:16;;;;;;;54.90;22.95;;;2.80;99.90;;;;;;5114761;28;20305;-53
2023/03/02 09:09:42;;;;;;;40.10;23.02;;;2.30;99.90;;;;;;5114064;28;20244;-53
2023/03/02 09:12:09;;;;;;;41.13;23.25;;;2.00;99.90;;;;;;5114955;28;20205;-53
2023/03/02 09:14:36;;;;;;;51.75;21.58;;;2.70;99.90;;;;;;5114612;28;20713;-54
2023/03/02 09:17:04;;;;;;;32.97;22.52;;;2.70;99.90;;;;;;5114826;28;20566;-54
2023/03/02 09:19:35;;;;;;;34.90;21.83;;;2.70;99.90;;;;;;5114592;28;20198;-54
2023/03/02 09:22:02;;;;;;;36.75;20.70;;;2.90;99.90;;;;;;5114718;28;20296;-55
2023/03/02 09:24:28;;;;;;;34.40;20.80;;;2.60;99.90;;;;;;5114064;28;20221;-54
2023/03/02 09:26:55;;;;;;;38.80;21.27;;;2.60;99.90;;;;;;5114000;28;20194;-53
2023/03/02 09:29:22;;;;;;;28.15;20.17;;;2.60;99.90;;;;;;5113889;28;20217;-53
2023/03/02 09:31:48;;;;;;;39.42;23.02;;;2.30;99.90;;;;;;5113833;28;20197;-54
2023/03/02 09:34:16;;;;;;;34.72;23.80;;;2.70;99.90;;;;;;5113597;28;20194;-52
2023/03/02 09:36:43;;;;;;;33.45;22.38;;;2.80;99.90;;;;;;5113741;28;20190;-52
2023/03/02 09:39:11;;;;;;;34.85;22.42;;;2.90;99.90;;;;;;5113004;28;20194;-53
2023/03/02 09:42:03;;;;;;;32.58;22.50;;;3.10;99.90;;;;;;5113624;28;20697;-53
2023/03/02 09:44:44;;;;;;;34.75;23.33;;;2.80;99.90;;;;;;5113869;28;20222;-55
2023/03/02 09:47:18;;;;;;;36.70;22.05;;;2.80;99.90;;;;;;5113720;28;20266;-53
2023/03/02 09:49:58;;;;;;;36.58;22.95;;;3.10;99.90;;;;;;5113401;28;20244;-54
2023/03/02 09:52:30;;;;;;;39.90;22.75;;;3.10;99.90;;;;;;5113857;28;20676;-54
2023/03/02 09:55:00;;;;;;;32.38;20.83;;;3.00;99.90;;;;;;5109028;27;20218;-53
2023/03/02 09:57:32;;;;;;;35.05;21.92;;;3.00;99.90;;;;;;5113320;28;20202;-53
2023/03/02 10:00:01;;;;;;;34.67;22.73;;;3.00;99.90;;;;;;5112269;28;20205;-54
2023/03/02 10:02:46;;;;;;;34.88;24.15;;;2.50;99.90;;;;;;5113451;28;20566;-53
2023/03/02 10:05:17;;;;;;;28.60;18.45;;;3.10;99.90;;;;;;5113726;28;20240;-55
2023/03/02 10:07:45;;;;;;;24.92;18.00;;;3.10;99.90;;;;;;5113247;28;20193;-52
2023/03/02 10:10:23;;;;;;;29.25;18.20;;;3.20;99.90;;;;;;5132574;27;20217;-53
2023/03/02 10:13:04;;;;;;;29.13;19.95;;;2.60;99.90;;;;;;5113436;27;20277;-51
2023/03/02 10:15:37;;;;;;;24.52;17.45;;;2.70;99.90;;;;;;5112948;28;20229;-52
2023/03/02 10:18:13;;;;;;;25.60;18.35;;;3.20;99.90;;;;;;5112516;28;20205;-53
2023/03/02 10:20:50;;;;;;;28.98;18.25;;;3.20;99.90;;;;;;5113322;28;20510;-52
2023/03/02 10:23:29;;;;;;;26.95;17.60;;;3.40;99.90;;;;;;5113386;28;20654;-52
2023/03/02 10:26:01;;;;;;;29.05;18.38;;;3.20;99.90;;;;;;5113257;28;20221;-51
2023/03/02 10:28:34;;;;;;;26.45;17.33;;;3.20;99.90;;;;;;5112517;28;20216;-53
2023/03/02 10:31:09;;;;;;;29.38;18.85;;;3.20;99.90;;;;;;5112943;28;20209;-52
2023/03/02 10:33:38;;;;;;;24.63;17.27;;;3.10;99.90;;;;;;5112949;28;20190;-51
2023/03/02 10:36:17;;;;;;;27.08;18.67;;;3.20;99.90;;;;;;5112812;28;20221;-54
2023/03/02 10:38:45;;;;;;;33.00;19.25;;;3.00;99.90;;;;;;5112298;28;20201;-54
2023/03/02 10:41:15;;;;;;;24.73;17.58;;;3.30;99.90;;;;;;5112533;28;20198;-54
2023/03/02 10:43:45;;;;;;;26.20;17.40;;;3.30;99.90;;;;;;5112227;28;20563;-54
2023/03/02 10:46:13;;;;;;;25.30;17.15;;;3.20;99.90;;;;;;5112221;28;20225;-54
2023/03/02 10:48:50;;;;;;;21.00;16.13;;;3.30;99.90;;;;;;5111928;28;20233;-53
2023/03/02 10:51:28;;;;;;;26.65;17.15;;;3.30;99.90;;;;;;5112544;28;20208;-53
2023/03/02 10:54:05;;;;;;;32.53;19.40;;;3.40;99.90;;;;;;5112674;28;20655;-53
2023/03/02 10:56:32;;;;;;;25.80;19.00;;;3.40;99.90;;;;;;5112314;28;20201;-53
2023/03/02 10:59:02;;;;;;;26.45;17.60;;;3.30;99.90;;;;;;5111922;28;20194;-53
2023/03/02 11:01:30;;;;;;;23.60;17.13;;;3.50;99.90;;;;;;5111927;28;20201;-54
2023/03/02 11:03:58;;;;;;;28.45;17.25;;;3.40;99.90;;;;;;5111852;28;20202;-54
2023/03/02 11:06:27;;;;;;;23.58;17.48;;;3.50;99.90;;;;;;5111894;28;20217;-54
2023/03/02 11:09:02;;;;;;;26.77;16.88;;;3.40;99.90;;;;;;5112288;28;20222;-53
2023/03/02 11:11:29;;;;;;;24.70;17.70;;;3.10;99.90;;;;;;5111900;28;20211;-52
2023/03/02 11:14:08;;;;;;;20.42;15.30;;;3.60;99.90;;;;;;5112275;28;20574;-53
2023/03/02 11:16:35;;;;;;;19.15;15.43;;;3.90;99.90;;;;;;5112897;28;20200;-53
2023/03/02 11:19:05;;;;;;;21.75;15.55;;;3.90;99.90;;;;;;5111831;28;20190;-53
2023/03/02 11:21:36;;;;;;;23.73;16.45;;;3.30;99.90;;;;;;5112342;28;20557;-53
2023/03/02 11:24:09;;;;;;;26.00;16.52;;;4.20;99.90;;;;;;5111395;28;20451;-53
2023/03/02 11:26:39;;;;;;;22.20;17.88;;;4.20;99.90;;;;;;5111002;28;20926;-54
2023/03/02 11:29:12;;;;;;;23.83;17.83;;;4.50;99.90;;;;;;5111140;28;20886;-54
2023/03/02 11:31:43;;;;;;;24.50;17.88;;;4.70;99.90;;;;;;5111721;28;20201;-54
2023/03/02 11:34:28;;;;;;;25.70;17.38;;;4.60;99.90;;;;;;5111544;28;20198;-53
2023/03/02 11:37:04;;;;;;;22.48;17.10;;;4.20;99.90;;;;;;5111824;28;20724;-54
2023/03/02 11:39:41;;;;;;;24.15;16.92;;;4.50;99.90;;;;;;5093482;28;20202;-52
2023/03/02 11:42:18;;;;;;;22.85;17.65;;;4.40;99.90;;;;;;5094509;28;20304;-52
2023/03/02 11:44:46;;;;;;;27.40;17.13;;;4.50;99.90;;;;;;5113077;28;20209;-53
2023/03/02 11:47:13;;;;;;;22.45;17.25;;;4.10;99.90;;;;;;5112619;28;20281;-53
2023/03/02 11:49:42;;;;;;;23.85;17.35;;;4.40;99.90;;;;;;5112005;28;20209;-53
2023/03/02 11:52:18;;;;;;;32.45;16.73;;;4.10;99.90;;;;;;5113401;28;20198;-53
2023/03/02 11:54:49;;;;;;;22.73;17.13;;;4.20;99.90;;;;;;5112126;28;20908;-53
2023/03/02 11:57:22;;;;;;;25.30;17.58;;;4.70;99.90;;;;;;5112582;28;20427;-52
2023/03/02 11:59:50;;;;;;;19.83;15.63;;;4.80;99.90;;;;;;5116223;28;20196;-53
2023/03/02 12:02:17;;;;;;;20.52;14.85;;;4.50;99.90;;;;;;5115907;28;20194;-54
2023/03/02 12:04:44;;;;;;;22.67;15.05;;;4.50;99.90;;;;;;5116569;28;20247;-54
2023/03/02 12:07:22;;;;;;;21.75;15.25;;;4.50;99.90;;;;;;5115782;28;20259;-53
2023/03/02 12:10:02;;;;;;;19.00;14.48;;;4.70;99.90;;;;;;5115055;28;20217;-54
2023/03/02 12:12:40;;;;;;;21.75;15.82;;;4.40;99.90;;;;;;5115198;28;20561;-54
2023/03/02 12:15:34;;;;;;;23.17;14.57;;;4.80;99.90;;;;;;5096577;28;20312;-53
2023/03/02 12:18:01;;;;;;;26.38;15.93;;;4.50;99.90;;;;;;5114987;28;20697;-54
2023/03/02 12:20:29;;;;;;;24.10;17.13;;;4.70;99.90;;;;;;5114957;28;20196;-54
2023/03/02 12:23:10;;;;;;;21.63;15.10;;;4.60;99.90;;;;;;5115287;28;20197;-53
2023/03/02 12:25:40;;;;;;;23.10;16.63;;;4.80;99.90;;;;;;5114836;28;20699;-53
2023/03/02 12:28:26;;;;;;;19.88;15.20;;;4.60;99.90;;;;;;5114005;28;20278;-53
2023/03/02 12:31:01;;;;;;;24.83;16.00;;;4.40;99.90;;;;;;5115269;28;20555;-54
2023/03/02 12:33:28;;;;;;;23.30;14.10;;;4.70;99.90;;;;;;5115477;28;20702;-55
2023/03/02 12:36:04;;;;;;;19.65;14.68;;;4.50;99.90;;;;;;5115377;28;20225;-53
2023/03/02 12:38:35;;;;;;;20.52;14.05;;;4.50;99.90;;;;;;5115288;28;20194;-54
2023/03/02 12:41:16;;;;;;;19.23;13.70;;;4.50;99.90;;;;;;5115700;28;20186;-54
2023/03/02 12:43:56;;;;;;;19.08;14.75;;;4.70;99.90;;;;;;5115179;28;20197;-60
2023/03/02 12:46:29;;;;;;;16.90;13.15;;;4.50;99.90;;;;;;5115543;28;20296;-54